createdAt,value
2023-05-04T00:00:08.080Z,24.99
2023-05-04T00:01:07.704Z,24.98
2023-05-04T00:02:07.561Z,24.99
2023-05-04T00:03:07.485Z,24.96
2023-05-04T00:04:07.456Z,24.98
2023-05-04T00:05:07.131Z,24.99
2023-05-04T00:06:07.004Z,24.99
2023-05-04T00:07:06.858Z,24.99
2023-05-04T00:08:06.761Z,24.98
2023-05-04T00:09:06.582Z,24.98
2023-05-04T00:10:06.663Z,24.99
2023-05-04T00:11:06.314Z,24.98
2023-05-04T00:12:06.175Z,24.98
2023-05-04T00:13:06.145Z,24.96
2023-05-04T00:14:05.882Z,24.99
2023-05-04T00:15:05.746Z,24.96
2023-05-04T00:16:05.659Z,24.96
2023-05-04T00:17:05.490Z,24.98
2023-05-04T00:18:05.432Z,24.96
2023-05-04T00:19:05.223Z,24.96
2023-05-04T00:20:05.364Z,24.96
2023-05-04T00:21:04.957Z,24.99
2023-05-04T00:22:04.828Z,24.98
2023-05-04T00:23:04.692Z,24.95
2023-05-04T00:24:04.571Z,24.95
2023-05-04T00:25:04.435Z,24.95
2023-05-04T00:26:04.283Z,24.96
2023-05-04T00:27:04.157Z,24.95
2023-05-04T00:28:04.015Z,24.96
2023-05-04T00:29:03.880Z,24.98
2023-05-04T00:30:03.841Z,24.98
2023-05-04T00:31:03.620Z,24.96
2023-05-04T00:32:03.567Z,24.96
2023-05-04T00:33:03.456Z,24.95
2023-05-04T00:34:03.280Z,24.96
2023-05-04T00:35:03.180Z,24.96
2023-05-04T00:36:03.089Z,24.98
2023-05-04T00:37:03.004Z,24.96
2023-05-04T00:38:02.879Z,24.95
2023-05-04T00:39:02.800Z,24.95
2023-05-04T00:40:03.119Z,24.95
2023-05-04T00:41:02.592Z,24.95
2023-05-04T00:42:02.474Z,24.93
2023-05-04T00:43:02.359Z,24.96
2023-05-04T00:44:02.246Z,24.96
2023-05-04T00:45:02.149Z,24.95
2023-05-04T00:46:02.055Z,24.96
2023-05-04T00:47:01.961Z,24.99
2023-05-04T00:48:01.862Z,24.95
2023-05-04T00:49:01.735Z,24.92
2023-05-04T00:50:01.671Z,24.95
2023-05-04T00:51:01.539Z,24.93
2023-05-04T00:52:01.434Z,24.95
2023-05-04T00:53:01.326Z,24.93
2023-05-04T00:54:01.238Z,24.95
2023-05-04T00:55:01.134Z,24.93
2023-05-04T00:56:01.017Z,24.95
2023-05-04T00:57:00.926Z,24.93
2023-05-04T00:58:00.815Z,24.92
2023-05-04T00:59:00.716Z,24.93
2023-05-04T01:00:00.644Z,24.95
2023-05-04T01:01:00.561Z,24.92
2023-05-04T01:02:00.418Z,24.92
2023-05-04T01:03:00.429Z,24.93
2023-05-04T01:04:00.291Z,24.93
2023-05-04T01:05:00.172Z,24.93
2023-05-04T01:06:00.016Z,24.93
2023-05-04T01:06:59.928Z,24.93
2023-05-04T01:07:59.815Z,24.92
2023-05-04T01:08:59.713Z,24.92
2023-05-04T01:09:59.610Z,24.95
2023-05-04T01:10:59.526Z,24.95
2023-05-04T01:11:59.426Z,24.91
2023-05-04T01:12:59.355Z,24.93
2023-05-04T01:13:59.225Z,24.91
2023-05-04T01:14:59.125Z,24.93
2023-05-04T01:15:59.037Z,24.93
2023-05-04T01:16:58.974Z,24.92
2023-05-04T01:17:58.947Z,24.95
2023-05-04T01:18:58.729Z,24.92
2023-05-04T01:19:58.665Z,24.93
2023-05-04T01:20:58.518Z,24.93
2023-05-04T01:21:58.474Z,24.92
2023-05-04T01:22:58.326Z,24.92
2023-05-04T01:23:58.215Z,24.93
2023-05-04T01:24:58.141Z,24.91
2023-05-04T01:25:58.027Z,24.93
2023-05-04T01:26:57.925Z,24.92
2023-05-04T01:27:57.845Z,24.92
2023-05-04T01:28:57.699Z,24.93
2023-05-04T01:29:57.580Z,24.93
2023-05-04T01:30:57.514Z,24.92
2023-05-04T01:31:57.387Z,24.93
2023-05-04T01:32:57.350Z,24.93
2023-05-04T01:33:57.206Z,24.92
2023-05-04T01:34:57.096Z,24.92
2023-05-04T01:35:57.001Z,24.91
2023-05-04T01:36:56.927Z,24.92
2023-05-04T01:37:56.794Z,24.89
2023-05-04T01:38:56.700Z,24.89
2023-05-04T01:39:56.579Z,24.91
2023-05-04T01:40:56.486Z,24.91
2023-05-04T01:41:56.399Z,24.89
2023-05-04T01:42:56.284Z,24.92
2023-05-04T01:43:56.171Z,24.92
2023-05-04T01:44:56.076Z,24.89
2023-05-04T01:45:55.987Z,24.91
2023-05-04T01:46:55.888Z,24.88
2023-05-04T01:47:55.837Z,24.89
2023-05-04T01:48:55.686Z,24.89
2023-05-04T01:49:55.583Z,24.91
2023-05-04T01:50:55.545Z,24.89
2023-05-04T01:51:55.381Z,24.88
2023-05-04T01:52:55.287Z,24.88
2023-05-04T01:53:55.183Z,24.89
2023-05-04T01:54:55.099Z,24.89
2023-05-04T01:55:54.990Z,24.88
2023-05-04T01:56:54.889Z,24.86
2023-05-04T01:57:54.799Z,24.89
2023-05-04T01:58:54.705Z,24.89
2023-05-04T01:59:54.613Z,24.86
2023-05-04T02:00:54.504Z,24.91
2023-05-04T02:01:54.420Z,24.91
2023-05-04T02:02:54.488Z,24.89
2023-05-04T02:03:54.297Z,24.86
2023-05-04T02:04:54.121Z,24.88
2023-05-04T02:05:54.038Z,24.88
2023-05-04T02:06:53.952Z,24.86
2023-05-04T02:07:53.841Z,24.91
2023-05-04T02:08:53.737Z,24.89
2023-05-04T02:09:53.648Z,24.88
2023-05-04T02:10:53.566Z,24.88
2023-05-04T02:11:53.456Z,24.89
2023-05-04T02:12:53.406Z,24.89
2023-05-04T02:13:53.164Z,24.88
2023-05-04T02:14:53.032Z,24.88
2023-05-04T02:15:52.929Z,24.88
2023-05-04T02:16:52.757Z,24.88
2023-05-04T02:17:52.671Z,24.88
2023-05-04T02:18:52.508Z,24.89
2023-05-04T02:19:52.368Z,24.89
2023-05-04T02:20:52.220Z,24.88
2023-05-04T02:21:52.093Z,24.91
2023-05-04T02:22:51.955Z,24.89
2023-05-04T02:23:51.842Z,24.89
2023-05-04T02:24:51.684Z,24.89
2023-05-04T02:25:51.601Z,24.86
2023-05-04T02:26:51.512Z,24.86
2023-05-04T02:27:51.414Z,24.88
2023-05-04T02:28:51.394Z,24.86
2023-05-04T02:29:51.262Z,24.89
2023-05-04T02:30:51.144Z,24.88
2023-05-04T02:31:51.088Z,24.89
2023-05-04T02:32:51.024Z,24.88
2023-05-04T02:33:50.874Z,24.89
2023-05-04T02:34:50.771Z,24.86
2023-05-04T02:35:50.659Z,24.86
2023-05-04T02:36:50.571Z,24.88
2023-05-04T02:37:50.490Z,24.86
2023-05-04T02:38:50.379Z,24.86
2023-05-04T02:39:50.280Z,24.88
2023-05-04T02:40:50.174Z,24.86
2023-05-04T02:41:50.086Z,24.86
2023-05-04T02:42:49.992Z,24.88
2023-05-04T02:43:49.905Z,24.89
2023-05-04T02:44:49.806Z,24.88
2023-05-04T02:45:49.788Z,24.88
2023-05-04T02:46:49.641Z,24.86
2023-05-04T02:47:49.566Z,24.86
2023-05-04T02:48:49.431Z,24.85
2023-05-04T02:49:49.338Z,24.85
2023-05-04T02:50:49.244Z,24.86
2023-05-04T02:51:49.188Z,24.86
2023-05-04T02:52:49.081Z,24.84
2023-05-04T02:53:48.993Z,24.86
2023-05-04T02:54:49.693Z,24.84
2023-05-04T02:55:48.738Z,24.85
2023-05-04T02:56:48.613Z,24.84
2023-05-04T02:57:48.460Z,24.82
2023-05-04T02:58:48.335Z,24.85
2023-05-04T02:59:48.178Z,24.85
2023-05-04T03:00:48.043Z,24.84
2023-05-04T03:01:48.041Z,24.82
2023-05-04T03:02:47.870Z,24.85
2023-05-04T03:03:47.755Z,24.86
2023-05-04T03:04:47.496Z,24.82
2023-05-04T03:05:47.382Z,24.82
2023-05-04T03:06:47.321Z,24.84
2023-05-04T03:07:47.140Z,24.85
2023-05-04T03:08:47.065Z,24.84
2023-05-04T03:09:48.022Z,24.84
2023-05-04T03:10:46.853Z,24.86
2023-05-04T03:11:46.752Z,24.85
2023-05-04T03:12:46.717Z,24.86
2023-05-04T03:13:46.561Z,24.84
2023-05-04T03:14:46.526Z,24.84
2023-05-04T03:15:46.374Z,24.84
2023-05-04T03:16:46.315Z,24.82
2023-05-04T03:17:46.257Z,24.86
2023-05-04T03:18:57.152Z,24.85
2023-05-04T03:19:45.944Z,24.85
2023-05-04T03:20:45.812Z,24.86
2023-05-04T03:21:45.681Z,24.84
2023-05-04T03:22:45.543Z,24.82
2023-05-04T03:23:45.406Z,24.82
2023-05-04T03:24:45.279Z,24.85
2023-05-04T03:25:45.137Z,24.82
2023-05-04T03:26:45.016Z,24.84
2023-05-04T03:27:44.940Z,24.82
2023-05-04T03:28:44.856Z,24.84
2023-05-04T03:29:44.736Z,24.84
2023-05-04T03:30:44.651Z,24.82
2023-05-04T03:31:44.576Z,24.84
2023-05-04T03:32:44.471Z,24.82
2023-05-04T03:33:44.404Z,24.84
2023-05-04T03:34:44.246Z,24.82
2023-05-04T03:35:44.099Z,24.84
2023-05-04T03:36:43.963Z,24.82
2023-05-04T03:37:43.840Z,24.82
2023-05-04T03:38:43.692Z,24.82
2023-05-04T03:39:43.555Z,24.84
2023-05-04T03:40:43.422Z,24.82
2023-05-04T03:41:43.293Z,24.84
2023-05-04T03:42:43.184Z,24.81
2023-05-04T03:43:43.042Z,24.82
2023-05-04T03:44:42.905Z,24.82
2023-05-04T03:45:42.827Z,24.81
2023-05-04T03:46:42.684Z,24.81
2023-05-04T03:47:42.660Z,24.82
2023-05-04T03:48:42.508Z,24.82
2023-05-04T03:49:42.404Z,24.81
2023-05-04T03:50:42.302Z,24.81
2023-05-04T03:51:42.214Z,24.81
2023-05-04T03:52:42.120Z,24.82
2023-05-04T03:53:43.430Z,24.82
2023-05-04T03:54:41.892Z,24.85
2023-05-04T03:55:41.772Z,24.84
2023-05-04T03:56:41.624Z,24.82
2023-05-04T03:57:41.514Z,24.82
2023-05-04T03:58:41.365Z,24.84
2023-05-04T03:59:41.238Z,24.82
2023-05-04T04:00:41.102Z,24.82
2023-05-04T04:01:40.948Z,24.81
2023-05-04T04:02:40.886Z,24.81
2023-05-04T04:03:40.734Z,24.81
2023-05-04T04:04:40.649Z,24.82
2023-05-04T04:05:40.417Z,24.84
2023-05-04T04:06:42.684Z,24.82
2023-05-04T04:07:40.136Z,24.81
2023-05-04T04:08:40.014Z,24.84
2023-05-04T04:09:39.851Z,24.82
2023-05-04T04:10:39.723Z,24.82
2023-05-04T04:11:39.585Z,24.82
2023-05-04T04:12:39.478Z,24.81
2023-05-04T04:13:39.319Z,24.82
2023-05-04T04:14:39.170Z,24.84
2023-05-04T04:15:39.028Z,24.84
2023-05-04T04:16:38.987Z,24.82
2023-05-04T04:17:38.796Z,24.85
2023-05-04T04:18:38.624Z,24.85
2023-05-04T04:19:38.495Z,24.82
2023-05-04T04:20:38.400Z,24.82
2023-05-04T04:21:38.238Z,24.82
2023-05-04T04:22:38.117Z,24.82
2023-05-04T04:23:37.976Z,24.84
2023-05-04T04:24:37.928Z,24.81
2023-05-04T04:25:37.695Z,24.82
2023-05-04T04:26:37.558Z,24.81
2023-05-04T04:27:37.436Z,24.81
2023-05-04T04:28:37.294Z,24.78
2023-05-04T04:29:37.167Z,24.79
2023-05-04T04:30:37.015Z,24.82
2023-05-04T04:31:36.932Z,24.82
2023-05-04T04:32:36.822Z,24.81
2023-05-04T04:33:36.616Z,24.85
2023-05-04T04:34:36.495Z,24.84
2023-05-04T04:35:36.363Z,24.84
2023-05-04T04:36:36.230Z,24.81
2023-05-04T04:37:36.083Z,24.82
2023-05-04T04:38:35.925Z,24.85
2023-05-04T04:39:35.845Z,24.84
2023-05-04T04:40:35.657Z,24.85
2023-05-04T04:41:35.524Z,24.82
2023-05-04T04:42:35.387Z,24.82
2023-05-04T04:43:35.283Z,24.84
2023-05-04T04:44:35.125Z,24.84
2023-05-04T04:45:34.982Z,24.84
2023-05-04T04:46:34.872Z,24.84
2023-05-04T04:47:34.726Z,24.84
2023-05-04T04:48:34.622Z,24.82
2023-05-04T04:49:34.426Z,24.81
2023-05-04T04:50:34.284Z,24.85
2023-05-04T04:51:34.147Z,24.84
2023-05-04T04:52:34.005Z,24.81
2023-05-04T04:53:33.874Z,24.84
2023-05-04T04:54:33.731Z,24.82
2023-05-04T04:55:33.605Z,24.84
2023-05-04T04:56:33.466Z,24.85
2023-05-04T04:57:33.335Z,24.81
2023-05-04T04:58:33.242Z,24.79
2023-05-04T04:59:33.129Z,24.82
2023-05-04T05:00:33.058Z,24.85
2023-05-04T05:01:33.003Z,24.82
2023-05-04T05:02:32.884Z,24.82
2023-05-04T05:03:32.773Z,24.85
2023-05-04T05:04:32.691Z,24.84
2023-05-04T05:05:32.561Z,24.82
2023-05-04T05:06:32.476Z,24.82
2023-05-04T05:07:32.373Z,24.84
2023-05-04T05:08:32.269Z,24.84
2023-05-04T05:09:32.176Z,24.82
2023-05-04T05:10:32.072Z,24.85
2023-05-04T05:11:31.988Z,24.82
2023-05-04T05:12:31.913Z,24.86
2023-05-04T05:13:31.816Z,24.86
2023-05-04T05:14:31.703Z,24.84
2023-05-04T05:15:31.626Z,24.85
2023-05-04T05:16:31.484Z,24.84
2023-05-04T05:17:31.457Z,24.85
2023-05-04T05:18:31.317Z,24.85
2023-05-04T05:19:31.213Z,24.84
2023-05-04T05:20:31.102Z,24.84
2023-05-04T05:21:31.026Z,24.84
2023-05-04T05:22:30.915Z,24.85
2023-05-04T05:23:30.820Z,24.84
2023-05-04T05:24:30.733Z,24.81
2023-05-04T05:25:30.629Z,24.86
2023-05-04T05:26:30.590Z,24.85
2023-05-04T05:27:30.487Z,24.86
2023-05-04T05:28:30.381Z,24.86
2023-05-04T05:29:30.324Z,24.85
2023-05-04T05:30:30.154Z,24.85
2023-05-04T05:31:30.151Z,24.86
2023-05-04T05:32:30.005Z,24.85
2023-05-04T05:33:30.122Z,24.85
2023-05-04T05:34:29.839Z,24.86
2023-05-04T05:35:29.685Z,24.84
2023-05-04T05:36:29.585Z,24.85
2023-05-04T05:37:29.486Z,24.79
2023-05-04T05:38:29.378Z,24.88
2023-05-04T05:39:29.283Z,24.91
2023-05-04T05:40:29.173Z,24.93
2023-05-04T05:41:29.058Z,24.98
2023-05-04T05:42:28.956Z,25.01
2023-05-04T05:43:28.809Z,24.99
2023-05-04T05:44:28.698Z,24.99
2023-05-04T05:45:28.567Z,25.05
2023-05-04T05:46:28.500Z,25.05
2023-05-04T05:47:28.363Z,25.12
2023-05-04T05:48:28.202Z,25.16
2023-05-04T05:49:28.031Z,25.15
2023-05-04T05:50:28.589Z,25.15
2023-05-04T05:51:27.734Z,25.19
2023-05-04T05:52:27.562Z,25.22
2023-05-04T05:53:27.434Z,25.26
2023-05-04T05:54:27.306Z,25.32
2023-05-04T05:55:27.153Z,25.32
2023-05-04T05:56:26.978Z,25.37
2023-05-04T05:57:26.841Z,25.39
2023-05-04T05:58:26.721Z,25.40
2023-05-04T05:59:26.548Z,25.43
2023-05-04T06:00:26.424Z,25.44
2023-05-04T06:01:26.273Z,25.48
2023-05-04T06:02:26.229Z,25.48
2023-05-04T06:03:26.051Z,25.53
2023-05-04T06:04:25.972Z,25.50
2023-05-04T06:05:25.660Z,25.54
2023-05-04T06:06:25.522Z,25.54
2023-05-04T06:07:25.401Z,25.56
2023-05-04T06:08:25.233Z,25.57
2023-05-04T06:09:25.104Z,25.57
2023-05-04T06:10:24.963Z,25.58
2023-05-04T06:11:24.796Z,25.61
2023-05-04T06:12:24.675Z,25.61
2023-05-04T06:13:24.534Z,25.58
2023-05-04T06:14:24.586Z,25.63
2023-05-04T06:15:24.213Z,25.63
2023-05-04T06:16:24.294Z,25.63
2023-05-04T06:17:23.985Z,25.61
2023-05-04T06:18:23.795Z,25.65
2023-05-04T06:19:23.712Z,25.65
2023-05-04T06:20:23.583Z,25.68
2023-05-04T06:21:23.486Z,25.67
2023-05-04T06:22:23.342Z,25.70
2023-05-04T06:23:23.177Z,25.68
2023-05-04T06:24:23.077Z,25.70
2023-05-04T06:25:22.949Z,25.70
2023-05-04T06:26:22.838Z,25.74
2023-05-04T06:27:24.319Z,25.77
2023-05-04T06:28:22.670Z,25.80
2023-05-04T06:29:22.467Z,25.83
2023-05-04T06:30:22.309Z,25.85
2023-05-04T06:31:22.288Z,25.87
2023-05-04T06:32:22.095Z,25.91
2023-05-04T06:33:21.902Z,25.92
2023-05-04T06:34:21.773Z,25.94
2023-05-04T06:35:21.611Z,25.99
2023-05-04T06:36:21.482Z,25.99
2023-05-04T06:37:21.387Z,26.02
2023-05-04T06:38:21.254Z,26.03
2023-05-04T06:39:21.184Z,26.06
2023-05-04T06:40:20.966Z,26.09
2023-05-04T06:41:20.863Z,26.09
2023-05-04T06:42:20.751Z,26.12
2023-05-04T06:43:20.699Z,26.12
2023-05-04T06:44:20.543Z,26.15
2023-05-04T06:45:20.343Z,26.18
2023-05-04T06:46:20.270Z,26.20
2023-05-04T06:47:19.971Z,26.20
2023-05-04T06:48:19.922Z,26.22
2023-05-04T06:49:19.671Z,26.23
2023-05-04T06:50:19.513Z,26.23
2023-05-04T06:51:19.360Z,26.25
2023-05-04T06:52:19.226Z,26.28
2023-05-04T06:53:19.061Z,26.29
2023-05-04T06:54:18.905Z,26.30
2023-05-04T06:55:18.798Z,26.30
2023-05-04T06:56:18.601Z,26.33
2023-05-04T06:57:18.450Z,26.33
2023-05-04T06:58:18.346Z,26.35
2023-05-04T06:59:18.231Z,26.36
2023-05-04T07:00:18.116Z,26.36
2023-05-04T07:01:18.523Z,26.33
2023-05-04T07:02:17.921Z,26.30
2023-05-04T07:03:17.874Z,26.32
2023-05-04T07:04:17.747Z,26.30
2023-05-04T07:05:17.653Z,26.29
2023-05-04T07:06:17.582Z,26.29
2023-05-04T07:07:17.489Z,26.32
2023-05-04T07:08:17.411Z,26.38
2023-05-04T07:09:17.996Z,26.39
2023-05-04T07:10:17.996Z,26.39
2023-05-04T07:11:17.057Z,26.33
2023-05-04T07:12:16.973Z,26.29
2023-05-04T07:13:16.937Z,26.23
2023-05-04T07:14:16.657Z,26.22
2023-05-04T07:15:16.525Z,26.18
2023-05-04T07:16:16.569Z,26.13
2023-05-04T07:17:16.364Z,26.11
2023-05-04T07:18:16.171Z,26.05
2023-05-04T07:19:16.051Z,25.98
2023-05-04T07:20:15.941Z,25.96
2023-05-04T07:21:27.061Z,25.95
2023-05-04T07:22:16.737Z,25.95
2023-05-04T07:23:15.544Z,25.98
2023-05-04T07:24:15.399Z,25.95
2023-05-04T07:25:15.251Z,26.01
2023-05-04T07:26:15.119Z,26.02
2023-05-04T07:27:14.984Z,26.03
2023-05-04T07:28:14.853Z,26.06
2023-05-04T07:29:14.717Z,26.11
2023-05-04T07:30:14.583Z,26.11
2023-05-04T07:31:14.453Z,26.11
2023-05-04T07:32:14.354Z,26.12
2023-05-04T07:33:14.197Z,26.12
2023-05-04T07:34:14.056Z,26.11
2023-05-04T07:35:14.127Z,26.09
2023-05-04T07:36:13.802Z,26.01
2023-05-04T07:37:13.671Z,26.02
2023-05-04T07:38:13.573Z,26.02
2023-05-04T07:39:13.437Z,25.99
2023-05-04T07:40:13.303Z,25.99
2023-05-04T07:41:13.171Z,26.02
2023-05-04T07:42:13.026Z,25.98
2023-05-04T07:43:12.976Z,25.99
2023-05-04T07:44:12.758Z,25.98
2023-05-04T07:45:12.623Z,26.01
2023-05-04T07:46:12.520Z,26.01
2023-05-04T07:47:12.355Z,26.01
2023-05-04T07:48:12.261Z,26.01
2023-05-04T07:49:12.057Z,26.02
2023-05-04T07:50:11.924Z,26.05
2023-05-04T07:51:11.771Z,26.05
2023-05-04T07:52:11.645Z,26.05
2023-05-04T07:53:11.725Z,26.03
2023-05-04T07:54:11.351Z,26.08
2023-05-04T07:55:11.242Z,26.09
2023-05-04T07:56:11.298Z,26.09
2023-05-04T07:57:10.938Z,26.08
2023-05-04T07:58:10.811Z,26.11
2023-05-04T07:59:10.668Z,26.09
2023-05-04T08:00:10.609Z,26.12
2023-05-04T08:01:10.517Z,26.12
2023-05-04T08:02:10.503Z,26.12
2023-05-04T08:03:10.443Z,26.13
2023-05-04T08:04:10.301Z,26.12
2023-05-04T08:05:10.246Z,26.16
2023-05-04T08:06:10.138Z,26.15
2023-05-04T08:07:10.005Z,26.16
2023-05-04T08:08:09.897Z,26.18
2023-05-04T08:09:10.532Z,26.18
2023-05-04T08:10:10.547Z,26.19
2023-05-04T08:11:19.328Z,26.20
2023-05-04T08:12:09.348Z,26.20
2023-05-04T08:13:09.438Z,26.22
2023-05-04T08:14:09.045Z,26.22
2023-05-04T08:15:09.604Z,26.22
2023-05-04T08:16:08.754Z,26.26
2023-05-04T08:17:08.618Z,26.25
2023-05-04T08:18:08.494Z,26.26
2023-05-04T08:19:08.515Z,26.22
2023-05-04T08:20:08.211Z,26.25
2023-05-04T08:21:08.028Z,26.26
2023-05-04T08:22:07.958Z,26.28
2023-05-04T08:23:07.857Z,26.29
2023-05-04T08:24:07.801Z,26.23
2023-05-04T08:25:08.534Z,26.29
2023-05-04T08:26:07.746Z,26.30
2023-05-04T08:27:08.749Z,26.33
2023-05-04T08:28:07.510Z,26.33
2023-05-04T08:29:07.311Z,26.36
2023-05-04T08:30:07.256Z,26.40
2023-05-04T08:31:07.107Z,26.42
2023-05-04T08:32:06.929Z,26.43
2023-05-04T08:33:06.769Z,26.47
2023-05-04T08:34:06.931Z,26.46
2023-05-04T08:35:06.557Z,26.49
2023-05-04T08:36:06.272Z,26.50
2023-05-04T08:37:06.172Z,26.51
2023-05-04T08:38:06.128Z,26.53
2023-05-04T08:39:05.969Z,26.56
2023-05-04T08:40:05.981Z,26.56
2023-05-04T08:41:05.804Z,26.53
2023-05-04T08:42:05.718Z,26.54
2023-05-04T08:43:05.610Z,26.56
2023-05-04T08:44:05.457Z,26.57
2023-05-04T08:45:05.542Z,26.57
2023-05-04T08:46:05.369Z,26.57
2023-05-04T08:47:05.042Z,26.57
2023-05-04T08:48:04.862Z,26.44
2023-05-04T08:49:04.735Z,26.47
2023-05-04T08:50:04.562Z,26.47
2023-05-04T08:51:04.698Z,26.53
2023-05-04T08:52:04.269Z,26.56
2023-05-04T08:53:04.090Z,26.54
2023-05-04T08:54:03.950Z,26.58
2023-05-04T08:55:03.946Z,26.63
2023-05-04T08:56:03.680Z,26.64
2023-05-04T08:57:03.569Z,26.64
2023-05-04T08:58:03.350Z,26.64
2023-05-04T08:59:03.219Z,26.66
2023-05-04T09:00:03.257Z,26.67
2023-05-04T09:01:03.200Z,26.66
2023-05-04T09:02:03.028Z,26.67
2023-05-04T09:03:02.986Z,26.66
2023-05-04T09:04:02.792Z,26.68
2023-05-04T09:05:02.851Z,26.70
2023-05-04T09:06:02.640Z,26.71
2023-05-04T09:07:02.553Z,26.71
2023-05-04T09:08:02.514Z,26.71
2023-05-04T09:09:02.342Z,26.73
2023-05-04T09:10:02.102Z,26.74
2023-05-04T09:11:01.911Z,26.74
2023-05-04T09:12:01.767Z,26.74
2023-05-04T09:13:01.745Z,26.76
2023-05-04T09:14:01.470Z,26.74
2023-05-04T09:15:01.320Z,26.76
2023-05-04T09:16:01.240Z,26.76
2023-05-04T09:17:01.036Z,26.76
2023-05-04T09:18:00.903Z,26.78
2023-05-04T09:19:00.802Z,26.76
2023-05-04T09:20:00.556Z,26.78
2023-05-04T09:21:01.083Z,26.80
2023-05-04T09:22:01.310Z,26.77
2023-05-04T09:23:01.105Z,26.78
2023-05-04T09:24:00.565Z,26.81
2023-05-04T09:25:00.158Z,26.81
2023-05-04T09:26:00.010Z,26.83
2023-05-04T09:26:59.914Z,26.83
2023-05-04T09:28:00.610Z,26.85
2023-05-04T09:28:59.544Z,26.88
2023-05-04T09:29:59.404Z,26.90
2023-05-04T09:30:59.248Z,26.91
2023-05-04T09:31:59.030Z,26.94
2023-05-04T09:32:58.947Z,26.97
2023-05-04T09:33:58.759Z,26.97
2023-05-04T09:34:58.561Z,26.98
2023-05-04T09:35:58.398Z,26.99
2023-05-04T09:36:58.197Z,26.98
2023-05-04T09:37:58.107Z,26.98
2023-05-04T09:38:57.997Z,27.02
2023-05-04T09:39:57.854Z,27.04
2023-05-04T09:40:57.739Z,27.05
2023-05-04T09:41:57.733Z,27.08
2023-05-04T09:42:58.062Z,27.09
2023-05-04T09:43:57.352Z,27.08
2023-05-04T09:44:57.217Z,27.12
2023-05-04T09:45:57.109Z,27.15
2023-05-04T09:46:56.952Z,27.16
2023-05-04T09:47:56.929Z,27.16
2023-05-04T09:48:56.730Z,27.19
2023-05-04T09:49:56.591Z,27.16
2023-05-04T09:50:57.087Z,27.21
2023-05-04T09:51:56.322Z,27.21
2023-05-04T09:52:56.186Z,27.15
2023-05-04T09:53:56.068Z,27.18
2023-05-04T09:54:55.964Z,27.15
2023-05-04T09:55:55.905Z,27.16
2023-05-04T09:56:55.698Z,27.13
2023-05-04T09:57:55.559Z,27.15
2023-05-04T09:58:55.440Z,27.15
2023-05-04T09:59:55.307Z,27.15
2023-05-04T10:00:55.211Z,27.13
2023-05-04T10:01:55.131Z,27.13
2023-05-04T10:02:55.211Z,27.12
2023-05-04T10:03:54.902Z,27.11
2023-05-04T10:04:54.776Z,27.13
2023-05-04T10:05:54.712Z,27.11
2023-05-04T10:06:54.558Z,27.11
2023-05-04T10:07:54.432Z,27.11
2023-05-04T10:08:54.335Z,27.09
2023-05-04T10:09:54.268Z,27.09
2023-05-04T10:10:54.089Z,27.06
2023-05-04T10:11:53.985Z,27.06
2023-05-04T10:12:53.862Z,27.06
2023-05-04T10:13:54.530Z,27.06
2023-05-04T10:14:53.648Z,27.05
2023-05-04T10:15:53.615Z,27.06
2023-05-04T10:16:53.521Z,27.04
2023-05-04T10:17:53.404Z,27.08
2023-05-04T10:18:53.223Z,27.08
2023-05-04T10:19:53.184Z,27.05
2023-05-04T10:20:52.979Z,27.08
2023-05-04T10:21:52.841Z,27.05
2023-05-04T10:22:52.771Z,27.05
2023-05-04T10:23:53.064Z,27.05
2023-05-04T10:24:52.505Z,27.04
2023-05-04T10:25:52.409Z,27.05
2023-05-04T10:26:52.350Z,27.06
2023-05-04T10:27:52.156Z,27.06
2023-05-04T10:28:52.074Z,27.06
2023-05-04T10:29:51.950Z,27.06
2023-05-04T10:30:51.895Z,27.06
2023-05-04T10:31:51.760Z,27.06
2023-05-04T10:32:51.704Z,27.05
2023-05-04T10:33:51.537Z,27.06
2023-05-04T10:34:51.369Z,27.05
2023-05-04T10:35:51.212Z,27.05
2023-05-04T10:36:51.022Z,27.06
2023-05-04T10:37:50.884Z,27.05
2023-05-04T10:38:50.717Z,27.06
2023-05-04T10:39:50.575Z,27.08
2023-05-04T10:40:50.399Z,27.06
2023-05-04T10:41:50.230Z,27.05
2023-05-04T10:42:50.080Z,27.06
2023-05-04T10:43:49.949Z,27.06
2023-05-04T10:44:49.796Z,27.06
2023-05-04T10:45:49.646Z,27.05
2023-05-04T10:46:49.434Z,27.06
2023-05-04T10:47:49.336Z,27.04
2023-05-04T10:48:49.211Z,27.06
2023-05-04T10:49:48.962Z,27.05
2023-05-04T10:50:48.830Z,27.04
2023-05-04T10:51:49.637Z,27.05
2023-05-04T10:52:48.570Z,27.05
2023-05-04T10:53:48.444Z,27.04
2023-05-04T10:54:48.345Z,27.04
2023-05-04T10:55:48.243Z,27.02
2023-05-04T10:56:48.130Z,27.04
2023-05-04T10:57:48.008Z,27.04
2023-05-04T10:58:47.904Z,27.05
2023-05-04T10:59:47.830Z,27.05
2023-05-04T11:00:47.687Z,27.04
2023-05-04T11:01:47.566Z,27.04
2023-05-04T11:02:47.541Z,27.04
2023-05-04T11:03:47.405Z,27.02
2023-05-04T11:04:49.098Z,27.04
2023-05-04T11:05:47.138Z,27.04
2023-05-04T11:06:47.031Z,27.05
2023-05-04T11:07:46.916Z,27.02
2023-05-04T11:08:46.817Z,27.04
2023-05-04T11:09:46.753Z,27.04
2023-05-04T11:10:46.611Z,27.02
2023-05-04T11:11:46.429Z,27.02
2023-05-04T11:12:46.501Z,27.02
2023-05-04T11:13:46.352Z,27.04
2023-05-04T11:14:46.103Z,27.04
2023-05-04T11:15:46.004Z,27.05
2023-05-04T11:16:45.909Z,27.05
2023-05-04T11:17:48.829Z,27.04
2023-05-04T11:18:45.800Z,27.05
2023-05-04T11:19:45.445Z,27.05
2023-05-04T11:20:45.291Z,27.05
2023-05-04T11:21:45.139Z,27.05
2023-05-04T11:22:45.001Z,27.06
2023-05-04T11:23:45.201Z,27.08
2023-05-04T11:24:44.677Z,27.05
2023-05-04T11:25:44.521Z,27.09
2023-05-04T11:26:45.379Z,27.11
2023-05-04T11:27:44.211Z,27.08
2023-05-04T11:28:44.071Z,27.08
2023-05-04T11:29:43.996Z,27.09
2023-05-04T11:30:43.784Z,27.12
2023-05-04T11:31:43.703Z,27.11
2023-05-04T11:32:43.450Z,27.13
2023-05-04T11:33:43.616Z,27.09
2023-05-04T11:34:43.188Z,27.12
2023-05-04T11:35:42.981Z,27.12
2023-05-04T11:36:42.845Z,27.12
2023-05-04T11:37:42.664Z,27.15
2023-05-04T11:38:42.542Z,27.15
2023-05-04T11:39:42.378Z,27.13
2023-05-04T11:40:42.188Z,27.16
2023-05-04T11:41:42.034Z,27.15
2023-05-04T11:42:41.934Z,27.13
2023-05-04T11:43:41.769Z,27.18
2023-05-04T11:44:41.572Z,27.16
2023-05-04T11:45:41.423Z,27.16
2023-05-04T11:46:41.268Z,27.18
2023-05-04T11:47:41.362Z,27.16
2023-05-04T11:48:41.723Z,27.15
2023-05-04T11:49:40.820Z,27.16
2023-05-04T11:50:40.647Z,27.15
2023-05-04T11:51:40.710Z,27.16
2023-05-04T11:52:40.422Z,27.15
2023-05-04T11:53:40.291Z,27.15
2023-05-04T11:54:40.156Z,27.18
2023-05-04T11:55:40.019Z,27.16
2023-05-04T11:56:39.884Z,27.19
2023-05-04T11:57:39.777Z,27.18
2023-05-04T11:58:39.680Z,27.16
2023-05-04T11:59:39.481Z,27.18
2023-05-04T12:00:39.621Z,27.15
2023-05-04T12:01:39.169Z,27.16
2023-05-04T12:02:39.315Z,27.16
2023-05-04T12:03:52.283Z,27.15
2023-05-04T12:04:39.723Z,27.15
2023-05-04T12:05:38.578Z,27.15
2023-05-04T12:06:38.449Z,27.15
2023-05-04T12:07:38.305Z,27.16
2023-05-04T12:08:38.100Z,27.16
2023-05-04T12:09:37.970Z,27.15
2023-05-04T12:10:37.780Z,27.16
2023-05-04T12:11:37.587Z,27.13
2023-05-04T12:12:37.466Z,27.13
2023-05-04T12:13:37.293Z,27.15
2023-05-04T12:14:37.127Z,27.18
2023-05-04T12:15:36.958Z,27.16
2023-05-04T12:16:37.127Z,27.16
2023-05-04T12:17:36.663Z,27.18
2023-05-04T12:18:36.506Z,27.15
2023-05-04T12:19:36.385Z,27.15
2023-05-04T12:20:36.270Z,27.15
2023-05-04T12:21:36.153Z,27.15
2023-05-04T12:22:35.963Z,27.16
2023-05-04T12:23:35.883Z,27.15
2023-05-04T12:24:35.755Z,27.12
2023-05-04T12:25:37.171Z,27.15
2023-05-04T12:26:36.515Z,27.15
2023-05-04T12:27:35.347Z,27.18
2023-05-04T12:28:35.122Z,27.18
2023-05-04T12:29:35.041Z,27.18
2023-05-04T12:30:35.418Z,27.16
2023-05-04T12:31:34.648Z,27.18
2023-05-04T12:32:35.139Z,27.15
2023-05-04T12:33:34.270Z,27.15
2023-05-04T12:34:34.148Z,27.16
2023-05-04T12:35:33.959Z,27.15
2023-05-04T12:36:33.778Z,27.15
2023-05-04T12:37:33.651Z,27.16
2023-05-04T12:38:33.508Z,27.16
2023-05-04T12:39:33.386Z,27.16
2023-05-04T12:40:33.201Z,27.16
2023-05-04T12:41:33.718Z,27.15
2023-05-04T12:42:33.625Z,27.16
2023-05-04T12:43:32.659Z,27.18
2023-05-04T12:44:32.499Z,27.16
2023-05-04T12:45:32.316Z,27.18
2023-05-04T12:46:32.188Z,27.18
2023-05-04T12:47:32.064Z,27.15
2023-05-04T12:48:31.851Z,27.18
2023-05-04T12:49:31.731Z,27.18
2023-05-04T12:50:31.543Z,27.16